createdAt,value
2017-12-20T00:00:32.398Z,17.80
2017-12-20T00:02:58.770Z,18.47
2017-12-20T00:05:25.015Z,16.97
2017-12-20T00:07:52.032Z,17.83
2017-12-20T00:10:18.295Z,17.63
2017-12-20T00:12:45.342Z,18.30
2017-12-20T00:15:12.369Z,21.70
2017-12-20T00:17:38.638Z,21.57
2017-12-20T00:20:04.940Z,21.37
2017-12-20T00:22:31.996Z,21.00
2017-12-20T00:24:58.303Z,22.60
2017-12-20T00:27:24.556Z,20.17
2017-12-20T00:29:50.955Z,19.43
2017-12-20T00:32:17.265Z,21.20
2017-12-20T00:34:43.571Z,21.47
2017-12-20T00:37:09.887Z,19.60
2017-12-20T00:39:36.203Z,20.70
2017-12-20T00:42:03.433Z,19.37
2017-12-20T00:44:29.739Z,18.53
2017-12-20T00:46:55.994Z,18.50
2017-12-20T00:49:23.011Z,19.43
2017-12-20T00:51:49.259Z,21.17
2017-12-20T00:54:15.554Z,19.13
2017-12-20T00:56:41.856Z,18.80
2017-12-20T00:59:08.126Z,19.20
2017-12-20T01:01:34.379Z,20.90
2017-12-20T01:04:01.395Z,15.30
2017-12-20T01:06:27.719Z,19.33
2017-12-20T01:08:53.997Z,19.90
2017-12-20T01:11:21.041Z,17.83
2017-12-20T01:13:48.051Z,19.80
2017-12-20T01:16:14.376Z,19.17
2017-12-20T01:18:40.638Z,19.57
2017-12-20T01:21:06.904Z,20.00
2017-12-20T01:23:33.197Z,19.50
2017-12-20T01:26:00.212Z,20.30
2017-12-20T01:28:26.469Z,19.83
2017-12-20T01:30:52.796Z,22.13
2017-12-20T01:33:19.055Z,19.40
2017-12-20T01:35:46.099Z,18.33
2017-12-20T01:38:13.165Z,18.90
2017-12-20T01:40:39.428Z,19.50
2017-12-20T01:43:05.695Z,18.93
2017-12-20T01:45:32.698Z,19.13
2017-12-20T01:47:59.100Z,17.93
2017-12-20T01:50:29.814Z,17.70
2017-12-20T01:52:56.897Z,18.13
2017-12-20T01:55:23.163Z,17.60
2017-12-20T01:57:49.599Z,18.67
2017-12-20T02:00:15.882Z,17.53
2017-12-20T02:02:42.136Z,17.90
2017-12-20T02:05:09.787Z,18.33
2017-12-20T02:07:37.358Z,17.33
2017-12-20T02:10:03.678Z,18.67
2017-12-20T02:12:31.341Z,17.67
2017-12-20T02:14:57.674Z,17.73
2017-12-20T02:17:23.951Z,17.70
2017-12-20T02:19:50.996Z,18.17
2017-12-20T02:22:18.017Z,18.17
2017-12-20T02:24:44.296Z,18.77
2017-12-20T02:27:10.585Z,15.37
2017-12-20T02:29:37.710Z,16.77
2017-12-20T02:32:04.002Z,17.60
2017-12-20T02:34:30.260Z,16.73
2017-12-20T02:36:56.543Z,17.50
2017-12-20T02:39:22.825Z,16.43
2017-12-20T02:41:49.158Z,18.57
2017-12-20T02:44:15.566Z,16.70
2017-12-20T02:46:42.712Z,15.90
2017-12-20T02:49:08.990Z,17.00
2017-12-20T02:51:36.023Z,18.20
2017-12-20T02:54:02.295Z,17.33
2017-12-20T02:56:28.640Z,17.53
2017-12-20T02:58:54.984Z,18.73
2017-12-20T03:01:21.274Z,17.27
2017-12-20T03:03:48.371Z,18.40
2017-12-20T03:06:14.648Z,17.17
2017-12-20T03:08:42.288Z,16.70
2017-12-20T03:11:08.533Z,17.03
2017-12-20T03:13:35.543Z,18.13
2017-12-20T03:16:01.784Z,16.00
2017-12-20T03:18:28.099Z,16.47
2017-12-20T03:20:54.367Z,16.10
2017-12-20T03:23:21.538Z,17.93
2017-12-20T03:25:47.855Z,17.00
2017-12-20T03:28:14.131Z,18.13
2017-12-20T03:30:40.381Z,16.40
2017-12-20T03:33:06.675Z,18.13
2017-12-20T03:35:32.949Z,18.93
2017-12-20T03:37:59.209Z,19.03
2017-12-20T03:40:25.563Z,19.53
2017-12-20T03:42:51.823Z,20.27
2017-12-20T03:45:18.087Z,19.07
2017-12-20T03:47:44.396Z,19.40
2017-12-20T03:50:10.750Z,19.23
2017-12-20T03:52:38.108Z,19.93
2017-12-20T03:55:04.431Z,19.57
2017-12-20T03:57:30.698Z,20.70
2017-12-20T03:59:57.010Z,19.97
2017-12-20T04:02:23.324Z,19.63
2017-12-20T04:04:49.643Z,19.60
2017-12-20T04:07:16.644Z,19.73
2017-12-20T04:09:42.942Z,19.13
2017-12-20T04:12:09.232Z,18.60
2017-12-20T04:14:35.471Z,18.33
2017-12-20T04:17:02.496Z,18.13
2017-12-20T04:19:29.547Z,18.10
2017-12-20T04:21:56.662Z,17.50
2017-12-20T04:24:22.996Z,16.80
2017-12-20T04:26:49.252Z,17.50
2017-12-20T04:29:15.532Z,17.97
2017-12-20T04:31:41.842Z,16.90
2017-12-20T04:34:08.086Z,18.07
2017-12-20T04:36:34.389Z,17.30
2017-12-20T04:39:01.383Z,17.63
2017-12-20T04:41:27.641Z,17.53
2017-12-20T04:43:53.895Z,17.53
2017-12-20T04:46:20.169Z,16.37
2017-12-20T04:48:46.510Z,18.47
2017-12-20T04:51:12.787Z,16.90
2017-12-20T04:53:39.820Z,17.20
2017-12-20T04:56:06.825Z,17.90
2017-12-20T04:58:33.263Z,16.33
2017-12-20T05:00:59.513Z,18.20
2017-12-20T05:03:25.806Z,18.30
2017-12-20T05:05:52.083Z,17.60
2017-12-20T05:08:19.081Z,17.83
2017-12-20T05:10:45.320Z,18.00
2017-12-20T05:13:11.618Z,17.97
2017-12-20T05:15:37.954Z,16.77
2017-12-20T05:18:04.192Z,19.17
2017-12-20T05:20:30.461Z,17.53
2017-12-20T05:22:56.739Z,18.73
2017-12-20T05:25:23.015Z,18.97
2017-12-20T05:27:49.347Z,19.13
2017-12-20T05:30:16.378Z,20.07
2017-12-20T05:32:42.702Z,18.90
2017-12-20T05:35:09.046Z,19.47
2017-12-20T05:37:36.053Z,20.53
2017-12-20T05:40:02.516Z,19.10
2017-12-20T05:42:28.764Z,19.83
2017-12-20T05:44:55.787Z,21.30
2017-12-20T05:47:22.065Z,18.40
2017-12-20T05:49:48.444Z,19.40
2017-12-20T05:52:14.779Z,20.77
2017-12-20T05:54:41.036Z,20.77
2017-12-20T05:57:08.081Z,20.37
2017-12-20T05:59:35.135Z,19.63
2017-12-20T06:02:02.168Z,19.53
2017-12-20T06:04:28.477Z,19.50
2017-12-20T06:06:55.319Z,17.93
2017-12-20T06:09:21.555Z,19.50
2017-12-20T06:11:48.701Z,19.00
2017-12-20T06:14:15.012Z,19.47
2017-12-20T06:16:41.299Z,19.87
2017-12-20T06:19:08.305Z,18.30
2017-12-20T06:21:35.378Z,19.80
2017-12-20T06:24:02.372Z,19.73
2017-12-20T06:26:28.680Z,18.43
2017-12-20T06:28:54.982Z,18.53
2017-12-20T06:31:21.337Z,18.60
2017-12-20T06:33:47.609Z,18.10
2017-12-20T06:36:13.866Z,17.37
2017-12-20T06:38:40.977Z,17.00
2017-12-20T06:41:07.284Z,18.13
2017-12-20T06:43:33.651Z,16.50
2017-12-20T06:45:59.981Z,14.93
2017-12-20T06:48:27.272Z,17.37
2017-12-20T06:50:53.642Z,16.67
2017-12-20T06:53:20.724Z,16.57
2017-12-20T06:55:47.194Z,17.57
2017-12-20T06:58:13.643Z,16.47
2017-12-20T07:00:40.067Z,15.67
2017-12-20T07:03:06.291Z,16.20
2017-12-20T07:05:32.588Z,16.20
2017-12-20T07:07:58.852Z,15.13
2017-12-20T07:10:25.194Z,17.53
2017-12-20T07:12:51.516Z,17.13
2017-12-20T07:15:17.822Z,17.97
2017-12-20T07:17:51.031Z,16.97
2017-12-20T07:20:17.351Z,17.17
2017-12-20T07:22:45.905Z,16.80
2017-12-20T07:25:12.243Z,17.17
2017-12-20T07:27:38.486Z,16.87
2017-12-20T07:30:05.943Z,16.60
2017-12-20T07:32:32.965Z,14.23
2017-12-20T07:34:59.274Z,16.37
2017-12-20T07:37:25.551Z,16.50
2017-12-20T07:39:51.852Z,16.23
2017-12-20T07:42:18.167Z,16.20
2017-12-20T07:44:44.450Z,17.20
2017-12-20T07:47:10.752Z,15.13
2017-12-20T07:49:37.013Z,17.10
2017-12-20T07:52:03.259Z,15.40
2017-12-20T07:54:29.571Z,15.27
2017-12-20T07:56:55.885Z,18.10
2017-12-20T07:59:22.955Z,16.77
2017-12-20T08:01:49.347Z,17.70
2017-12-20T08:04:16.346Z,16.97
2017-12-20T08:06:42.613Z,17.73
2017-12-20T08:09:08.860Z,18.37
2017-12-20T08:11:35.875Z,18.50
2017-12-20T08:14:02.146Z,17.60
2017-12-20T08:16:28.604Z,17.73
2017-12-20T08:18:54.940Z,17.00
2017-12-20T08:21:21.175Z,16.50
2017-12-20T08:23:47.525Z,17.20
2017-12-20T08:26:13.832Z,16.57
2017-12-20T08:28:40.207Z,16.97
2017-12-20T08:31:11.704Z,15.80
2017-12-20T08:33:37.953Z,16.13
2017-12-20T08:36:04.253Z,16.43
2017-12-20T08:38:31.082Z,17.17
2017-12-20T08:40:57.339Z,17.83
2017-12-20T08:43:23.604Z,16.93
2017-12-20T08:45:49.878Z,15.67
2017-12-20T08:48:16.104Z,15.60
2017-12-20T08:50:42.389Z,15.33
2017-12-20T08:53:08.639Z,15.50
2017-12-20T08:55:35.684Z,15.70
2017-12-20T08:58:02.777Z,16.30
2017-12-20T09:00:29.078Z,16.47
2017-12-20T09:02:55.365Z,17.67
2017-12-20T09:05:25.566Z,17.70
2017-12-20T09:07:51.859Z,17.80
2017-12-20T09:10:18.145Z,17.13
2017-12-20T09:12:44.401Z,17.47
2017-12-20T09:15:11.428Z,16.77
2017-12-20T09:17:38.527Z,17.00
2017-12-20T09:20:04.747Z,16.40
2017-12-20T09:22:31.024Z,18.30
2017-12-20T09:24:57.428Z,17.30
2017-12-20T09:27:23.707Z,17.60
2017-12-20T09:29:50.741Z,17.40
2017-12-20T09:32:16.963Z,17.87
2017-12-20T09:34:43.254Z,18.63
2017-12-20T09:37:09.553Z,17.63
2017-12-20T09:39:36.531Z,18.40
2017-12-20T09:42:03.018Z,18.20
2017-12-20T09:44:30.131Z,19.90
2017-12-20T09:46:56.620Z,19.47
2017-12-20T09:49:23.605Z,19.40
2017-12-20T09:51:50.040Z,19.73
2017-12-20T09:54:16.326Z,19.20
2017-12-20T09:56:43.690Z,19.50
2017-12-20T09:59:10.166Z,19.20
2017-12-20T10:01:36.479Z,19.53
2017-12-20T10:04:02.979Z,19.33
2017-12-20T10:06:29.992Z,19.00
2017-12-20T10:08:57.042Z,19.07
2017-12-20T10:11:23.306Z,19.97
2017-12-20T10:13:49.608Z,20.00
2017-12-20T10:16:16.647Z,17.43
2017-12-20T10:18:43.013Z,17.63
2017-12-20T10:21:09.405Z,17.60
2017-12-20T10:23:35.774Z,20.40
2017-12-20T10:26:02.158Z,22.07
2017-12-20T10:28:28.542Z,20.30
2017-12-20T10:30:54.855Z,19.53
2017-12-20T10:33:21.906Z,20.13
2017-12-20T10:35:48.306Z,19.57
2017-12-20T10:38:14.666Z,20.50
2017-12-20T10:40:41.022Z,21.03
2017-12-20T10:43:07.293Z,21.10
2017-12-20T10:45:33.689Z,22.10
2017-12-20T10:48:02.241Z,22.97
2017-12-20T10:50:28.948Z,22.47
2017-12-20T10:52:55.305Z,19.73
2017-12-20T10:55:22.339Z,20.57
2017-12-20T10:57:48.694Z,20.30
2017-12-20T11:00:15.017Z,20.67
2017-12-20T11:02:44.027Z,20.90
2017-12-20T11:05:10.370Z,20.90
2017-12-20T11:07:36.797Z,19.10
2017-12-20T11:10:03.158Z,20.60
2017-12-20T11:12:29.454Z,18.77
2017-12-20T11:15:02.248Z,18.87
2017-12-20T11:17:28.622Z,19.97
2017-12-20T11:19:54.892Z,20.27
2017-12-20T11:22:21.599Z,20.57
2017-12-20T11:24:47.860Z,18.27
2017-12-20T11:27:14.191Z,21.90
2017-12-20T11:29:40.462Z,20.70
2017-12-20T11:32:06.801Z,21.53
2017-12-20T11:34:33.114Z,20.53
2017-12-20T11:37:00.409Z,21.37
2017-12-20T11:39:26.747Z,20.50
2017-12-20T11:41:53.102Z,19.50
2017-12-20T11:44:19.474Z,20.20
2017-12-20T11:46:49.615Z,26.90
2017-12-20T11:49:16.619Z,22.33
2017-12-20T11:51:42.937Z,21.83
2017-12-20T11:54:09.491Z,21.63
2017-12-20T11:56:35.803Z,20.47
2017-12-20T11:59:02.113Z,21.43
2017-12-20T12:01:28.421Z,21.03
2017-12-20T12:03:55.495Z,21.83
2017-12-20T12:06:21.971Z,21.40
2017-12-20T12:08:48.381Z,21.33
2017-12-20T12:11:14.640Z,21.23
2017-12-20T12:13:40.890Z,23.00
2017-12-20T12:16:07.964Z,22.60
2017-12-20T12:18:34.257Z,23.50
2017-12-20T12:21:01.323Z,24.67
2017-12-20T12:23:27.623Z,19.87
2017-12-20T12:25:53.924Z,20.53
2017-12-20T12:28:20.244Z,20.50
2017-12-20T12:30:46.536Z,18.70
2017-12-20T12:33:12.811Z,17.80
2017-12-20T12:35:39.118Z,20.47
2017-12-20T12:38:05.466Z,22.90
2017-12-20T12:40:31.746Z,21.80
2017-12-20T12:42:58.020Z,23.10
2017-12-20T12:45:24.304Z,23.20
2017-12-20T12:47:51.316Z,20.30
2017-12-20T12:50:17.562Z,20.83
2017-12-20T12:52:43.842Z,21.80
2017-12-20T12:55:10.204Z,21.80
2017-12-20T12:57:36.490Z,23.33
2017-12-20T13:00:02.759Z,18.90
2017-12-20T13:02:29.090Z,19.67
2017-12-20T13:04:55.392Z,20.40
2017-12-20T13:07:21.715Z,20.80
2017-12-20T13:09:47.959Z,18.27
2017-12-20T13:12:14.258Z,19.20
2017-12-20T13:14:40.565Z,19.60
2017-12-20T13:17:07.594Z,19.07
2017-12-20T13:19:33.874Z,19.97
2017-12-20T13:22:00.206Z,18.17
2017-12-20T13:24:26.462Z,17.93
2017-12-20T13:26:52.740Z,18.40
2017-12-20T13:29:19.019Z,19.93
2017-12-20T13:31:45.270Z,18.87
2017-12-20T13:34:11.541Z,18.50
2017-12-20T13:36:37.808Z,19.57
2017-12-20T13:39:09.748Z,19.07
2017-12-20T13:41:38.572Z,19.77
2017-12-20T13:44:05.062Z,19.57
2017-12-20T13:46:31.706Z,18.70
2017-12-20T13:48:58.087Z,19.77
2017-12-20T13:51:24.484Z,20.93
2017-12-20T13:53:50.800Z,20.00
2017-12-20T13:56:17.119Z,17.93
2017-12-20T13:58:43.375Z,20.77
2017-12-20T14:01:10.352Z,19.57
2017-12-20T14:03:36.614Z,19.10
2017-12-20T14:06:03.640Z,19.17
2017-12-20T14:08:30.059Z,19.33
2017-12-20T14:11:03.421Z,19.27
2017-12-20T14:13:30.491Z,19.23
2017-12-20T14:15:56.898Z,24.00
2017-12-20T14:18:23.136Z,22.03
2017-12-20T14:20:50.354Z,20.33
2017-12-20T14:23:16.645Z,19.90
2017-12-20T14:25:42.953Z,20.20
2017-12-20T14:28:09.294Z,22.27
2017-12-20T14:30:35.580Z,23.73
2017-12-20T14:33:01.863Z,20.13
2017-12-20T14:35:28.869Z,17.90
2017-12-20T14:37:55.280Z,21.00
2017-12-20T14:40:21.638Z,20.90
2017-12-20T14:42:48.722Z,20.10
2017-12-20T14:45:15.075Z,21.00
2017-12-20T14:47:41.447Z,19.47
2017-12-20T14:50:08.524Z,19.97
2017-12-20T14:52:36.090Z,18.30
2017-12-20T14:55:02.478Z,18.00
2017-12-20T14:57:36.557Z,18.43
2017-12-20T15:00:03.100Z,19.93
2017-12-20T15:02:29.428Z,20.77
2017-12-20T15:04:55.665Z,20.10
2017-12-20T15:07:21.960Z,18.90
2017-12-20T15:09:48.989Z,18.17
2017-12-20T15:12:16.970Z,18.63
2017-12-20T15:14:44.196Z,18.53
2017-12-20T15:17:10.711Z,18.53
2017-12-20T15:19:37.282Z,19.37
2017-12-20T15:22:03.616Z,20.83
2017-12-20T15:24:31.558Z,18.67
2017-12-20T15:27:04.506Z,20.30
2017-12-20T15:29:33.401Z,18.70
2017-12-20T15:32:00.472Z,20.03
2017-12-20T15:34:28.292Z,19.87
2017-12-20T15:36:55.466Z,22.10
2017-12-20T15:39:23.878Z,21.07
2017-12-20T15:41:52.813Z,19.73
2017-12-20T15:44:20.572Z,21.03
2017-12-20T15:46:47.644Z,20.77
2017-12-20T15:49:13.923Z,23.00
2017-12-20T15:51:40.251Z,21.20
2017-12-20T15:54:06.554Z,21.57
2017-12-20T15:56:34.750Z,23.30
2017-12-20T15:59:01.164Z,22.67
2017-12-20T16:01:27.418Z,22.03
2017-12-20T16:03:53.929Z,23.50
2017-12-20T16:06:20.265Z,22.57
2017-12-20T16:08:46.586Z,24.37
2017-12-20T16:11:12.913Z,24.60
2017-12-20T16:13:39.170Z,23.30
2017-12-20T16:16:06.203Z,23.60
2017-12-20T16:18:32.546Z,23.40
2017-12-20T16:20:58.878Z,23.70
2017-12-20T16:23:25.154Z,24.30
2017-12-20T16:25:51.476Z,24.50
2017-12-20T16:28:17.773Z,22.83
2017-12-20T16:30:44.778Z,25.67
2017-12-20T16:33:11.047Z,24.43
2017-12-20T16:35:37.388Z,23.30
2017-12-20T16:38:04.893Z,25.40
2017-12-20T16:40:31.295Z,23.80
2017-12-20T16:42:57.734Z,25.50
2017-12-20T16:45:24.057Z,24.90
2017-12-20T16:47:50.361Z,25.37
2017-12-20T16:50:17.410Z,26.83
2017-12-20T16:52:43.760Z,27.30
2017-12-20T16:55:10.043Z,29.27
2017-12-20T16:57:36.401Z,24.30
2017-12-20T17:00:03.539Z,25.07
2017-12-20T17:02:29.948Z,24.53
2017-12-20T17:04:56.284Z,27.00
2017-12-20T17:07:22.630Z,27.60
2017-12-20T17:09:49.999Z,25.83
2017-12-20T17:12:16.352Z,27.00
2017-12-20T17:14:42.863Z,27.73
2017-12-20T17:17:10.007Z,27.70
2017-12-20T17:19:37.085Z,25.97
2017-12-20T17:22:03.615Z,27.03
2017-12-20T17:24:29.876Z,27.33
2017-12-20T17:26:56.175Z,29.27
2017-12-20T17:29:22.498Z,32.90
2017-12-20T17:31:49.522Z,37.57
2017-12-20T17:34:16.622Z,29.07
2017-12-20T17:36:43.000Z,39.30
2017-12-20T17:39:09.330Z,40.80
2017-12-20T17:41:36.530Z,31.43
2017-12-20T17:44:04.065Z,31.87
2017-12-20T17:46:30.317Z,32.27
2017-12-20T17:48:58.211Z,28.53
2017-12-20T17:51:24.462Z,31.70
2017-12-20T17:53:50.804Z,33.90
2017-12-20T17:56:18.330Z,35.73
2017-12-20T17:58:44.760Z,29.63
2017-12-20T18:01:11.236Z,31.90
2017-12-20T18:03:38.542Z,43.40
2017-12-20T18:06:04.873Z,35.37
2017-12-20T18:08:34.740Z,30.80
2017-12-20T18:11:02.140Z,29.70
2017-12-20T18:13:28.512Z,28.77
2017-12-20T18:15:55.686Z,25.47
2017-12-20T18:18:22.080Z,28.50
2017-12-20T18:20:51.032Z,28.00
2017-12-20T18:23:17.360Z,29.37
2017-12-20T18:25:45.277Z,28.70
2017-12-20T18:28:12.940Z,30.43
2017-12-20T18:30:39.274Z,35.40
2017-12-20T18:33:05.858Z,35.50
2017-12-20T18:35:37.464Z,34.80
2017-12-20T18:38:07.263Z,35.17
2017-12-20T18:41:09.921Z,32.73
2017-12-20T18:43:37.267Z,29.37
2017-12-20T18:46:03.523Z,28.93
2017-12-20T18:48:29.870Z,32.37
2017-12-20T18:50:57.803Z,31.40
2017-12-20T18:53:25.205Z,34.30
2017-12-20T18:55:51.594Z,31.10
2017-12-20T18:58:18.639Z,35.00
2017-12-20T19:00:45.012Z,34.17
2017-12-20T19:03:11.677Z,30.60
2017-12-20T19:05:37.977Z,32.87
2017-12-20T19:08:04.978Z,34.37
2017-12-20T19:10:31.411Z,31.87
2017-12-20T19:12:57.691Z,32.50
2017-12-20T19:15:23.966Z,30.63
2017-12-20T19:17:50.276Z,31.57
2017-12-20T19:20:16.585Z,32.20
2017-12-20T19:22:45.011Z,31.60
2017-12-20T19:25:11.386Z,37.27
2017-12-20T19:27:37.758Z,32.77
2017-12-20T19:30:04.583Z,35.00
2017-12-20T19:32:31.151Z,34.43
2017-12-20T19:34:57.435Z,34.47
2017-12-20T19:37:23.702Z,32.80
2017-12-20T19:39:50.142Z,33.87
2017-12-20T19:42:16.527Z,33.83
2017-12-20T19:44:43.018Z,32.33
2017-12-20T19:47:10.253Z,38.03
2017-12-20T19:49:36.709Z,36.63
2017-12-20T19:52:04.370Z,39.30
2017-12-20T19:54:31.480Z,41.50
2017-12-20T19:56:57.871Z,35.37
2017-12-20T19:59:24.476Z,34.93
2017-12-20T20:01:50.858Z,33.77
2017-12-20T20:04:17.252Z,35.37
2017-12-20T20:06:43.741Z,34.30
2017-12-20T20:09:15.591Z,34.93
2017-12-20T20:11:41.942Z,31.77
2017-12-20T20:14:14.607Z,31.87
2017-12-20T20:16:41.135Z,34.57
2017-12-20T20:19:07.461Z,33.70
2017-12-20T20:21:33.829Z,35.80
2017-12-20T20:24:01.025Z,34.13
2017-12-20T20:26:31.260Z,33.17
2017-12-20T20:29:04.675Z,34.77
2017-12-20T20:31:31.091Z,34.33
2017-12-20T20:33:57.910Z,35.90
2017-12-20T20:36:24.981Z,34.40
2017-12-20T20:38:51.555Z,33.70
2017-12-20T20:41:17.789Z,35.90
2017-12-20T20:43:44.277Z,35.27
2017-12-20T20:46:12.747Z,34.80
2017-12-20T20:48:40.800Z,34.83
2017-12-20T20:51:07.733Z,35.10
2017-12-20T20:53:34.729Z,34.80
2017-12-20T20:56:09.460Z,36.10
2017-12-20T20:58:36.300Z,32.83
2017-12-20T21:01:02.634Z,35.20
2017-12-20T21:03:28.856Z,34.70
2017-12-20T21:05:55.170Z,34.97
2017-12-20T21:08:21.742Z,36.83
2017-12-20T21:10:48.439Z,35.73
2017-12-20T21:13:14.817Z,37.27
2017-12-20T21:15:42.429Z,36.77
2017-12-20T21:18:09.578Z,39.97
2017-12-20T21:20:35.799Z,41.00
2017-12-20T21:23:05.968Z,41.60
2017-12-20T21:25:32.246Z,36.90
2017-12-20T21:27:59.290Z,37.20
2017-12-20T21:30:25.574Z,36.87
2017-12-20T21:32:56.605Z,38.33
2017-12-20T21:35:23.110Z,36.73
2017-12-20T21:37:49.372Z,39.77
2017-12-20T21:40:15.610Z,38.20
2017-12-20T21:42:41.906Z,39.60
2017-12-20T21:45:08.249Z,40.40
2017-12-20T21:47:35.356Z,39.13
2017-12-20T21:50:02.460Z,36.73
2017-12-20T21:52:28.705Z,39.53
2017-12-20T21:54:54.954Z,35.90
2017-12-20T21:57:22.593Z,38.63
2017-12-20T21:59:48.865Z,38.20
2017-12-20T22:02:15.885Z,38.30
2017-12-20T22:04:43.135Z,36.73
2017-12-20T22:07:09.386Z,36.67
2017-12-20T22:09:36.387Z,38.37
2017-12-20T22:12:04.487Z,36.40
2017-12-20T22:14:35.218Z,36.47
2017-12-20T22:17:01.670Z,36.77
2017-12-20T22:19:28.693Z,37.87
2017-12-20T22:21:55.713Z,36.53
2017-12-20T22:24:21.966Z,34.60
2017-12-20T22:26:48.214Z,38.00
2017-12-20T22:29:15.218Z,36.40
2017-12-20T22:31:41.482Z,34.60
2017-12-20T22:34:08.883Z,35.07
2017-12-20T22:36:35.166Z,33.37
2017-12-20T22:39:02.192Z,34.97
2017-12-20T22:41:28.439Z,34.50
2017-12-20T22:43:55.432Z,38.17
2017-12-20T22:46:21.713Z,34.40
2017-12-20T22:48:48.716Z,32.93
2017-12-20T22:51:14.952Z,34.20
2017-12-20T22:53:41.191Z,35.77
2017-12-20T22:56:07.435Z,34.50
2017-12-20T22:58:33.677Z,34.93
2017-12-20T23:01:00.729Z,34.37
2017-12-20T23:03:28.037Z,35.43
2017-12-20T23:05:55.557Z,34.73
2017-12-20T23:08:21.819Z,34.93
2017-12-20T23:10:49.562Z,35.53
2017-12-20T23:13:15.816Z,30.83
2017-12-20T23:15:42.078Z,34.40
2017-12-20T23:18:09.068Z,31.17
2017-12-20T23:20:35.350Z,30.10
2017-12-20T23:23:02.422Z,30.40
2017-12-20T23:25:28.803Z,28.50
2017-12-20T23:27:55.820Z,26.77
2017-12-20T23:30:22.158Z,23.97
2017-12-20T23:32:50.455Z,24.23
2017-12-20T23:35:20.271Z,23.90
2017-12-20T23:37:46.504Z,21.83
2017-12-20T23:40:12.770Z,22.23
2017-12-20T23:42:39.768Z,24.10
2017-12-20T23:45:06.032Z,24.37
2017-12-20T23:47:33.164Z,26.20
2017-12-20T23:49:59.460Z,25.77
2017-12-20T23:52:25.697Z,25.47
2017-12-20T23:54:52.041Z,24.00
2017-12-20T23:57:18.289Z,23.57
2017-12-20T23:59:45.330Z,22.70
